createdAt,value
2019-03-01T00:00:20.872Z,11.50
2019-03-01T00:02:48.154Z,11.40
2019-03-01T00:05:44.465Z,11.10
2019-03-01T00:08:17.792Z,10.80
2019-03-01T00:11:35.742Z,10.90
2019-03-01T00:14:33.874Z,10.80
2019-03-01T00:17:30.354Z,10.90
2019-03-01T00:20:41.311Z,10.40
2019-03-01T00:23:58.407Z,10.40
2019-03-01T00:27:00.205Z,10.40
2019-03-01T00:30:22.023Z,10.50
2019-03-01T00:32:58.593Z,10.70
2019-03-01T00:36:10.718Z,10.70
2019-03-01T00:38:58.419Z,10.80
2019-03-01T00:41:54.557Z,10.80
2019-03-01T00:44:40.313Z,10.60
2019-03-01T00:47:07.726Z,10.50
2019-03-01T00:49:35.455Z,10.50
2019-03-01T00:52:02.995Z,10.50
2019-03-01T00:54:30.412Z,10.20
2019-03-01T00:56:57.838Z,10.30
2019-03-01T00:59:25.129Z,10.60
2019-03-01T01:01:52.607Z,10.50
2019-03-01T01:04:20.001Z,10.50
2019-03-01T01:06:47.334Z,10.40
2019-03-01T01:09:14.942Z,10.20
2019-03-01T01:11:42.676Z,10.30
2019-03-01T01:14:10.098Z,10.10
2019-03-01T01:16:37.440Z,10.10
2019-03-01T01:19:05.043Z,10.10
2019-03-01T01:21:32.343Z,10.10
2019-03-01T01:23:59.767Z,10.20
2019-03-01T01:26:27.427Z,10.30
2019-03-01T01:28:54.849Z,10.60
2019-03-01T01:31:22.140Z,10.50
2019-03-01T01:33:49.526Z,10.50
2019-03-01T01:36:16.941Z,10.50
2019-03-01T01:38:44.340Z,10.20
2019-03-01T01:41:11.766Z,10.20
2019-03-01T01:43:39.203Z,10.40
2019-03-01T01:46:06.939Z,10.30
2019-03-01T01:48:34.340Z,10.20
2019-03-01T01:51:01.648Z,10.30
2019-03-01T01:53:29.082Z,10.20
2019-03-01T01:55:56.483Z,10.20
2019-03-01T01:58:23.893Z,10.40
2019-03-01T02:00:51.223Z,10.30
2019-03-01T02:03:18.549Z,10.10
2019-03-01T02:05:46.029Z,9.90
2019-03-01T02:08:13.443Z,9.90
2019-03-01T02:10:40.915Z,10.10
2019-03-01T02:13:08.331Z,10.10
2019-03-01T02:15:35.709Z,9.90
2019-03-01T02:18:03.594Z,9.80
2019-03-01T02:20:30.903Z,10.00
2019-03-01T02:22:58.275Z,9.90
2019-03-01T02:25:25.559Z,9.80
2019-03-01T02:27:52.898Z,9.80
2019-03-01T02:30:22.584Z,9.70
2019-03-01T02:32:50.317Z,9.40
2019-03-01T02:35:19.837Z,9.40
2019-03-01T02:37:47.238Z,9.40
2019-03-01T02:40:15.324Z,9.40
2019-03-01T02:42:42.723Z,9.50
2019-03-01T02:45:12.025Z,9.50
2019-03-01T02:47:39.392Z,9.50
2019-03-01T02:50:07.555Z,9.40
2019-03-01T02:52:34.916Z,9.70
2019-03-01T02:55:02.345Z,9.60
2019-03-01T02:57:29.646Z,9.60
2019-03-01T02:59:57.351Z,9.60
2019-03-01T03:02:24.752Z,9.50
2019-03-01T03:04:52.057Z,9.50
2019-03-01T03:07:27.599Z,9.40
2019-03-01T03:09:55.069Z,9.30
2019-03-01T03:12:22.461Z,9.10
2019-03-01T03:14:49.905Z,9.20
2019-03-01T03:17:17.297Z,9.40
2019-03-01T03:19:44.720Z,9.30
2019-03-01T03:22:12.114Z,9.30
2019-03-01T03:24:39.538Z,9.30
2019-03-01T03:27:06.925Z,9.30
2019-03-01T03:29:34.390Z,9.20
2019-03-01T03:32:01.770Z,9.30
2019-03-01T03:34:29.462Z,9.30
2019-03-01T03:36:56.777Z,9.10
2019-03-01T03:39:24.074Z,9.10
2019-03-01T03:41:51.490Z,9.30
2019-03-01T03:44:19.010Z,9.30
2019-03-01T03:46:46.434Z,9.20
2019-03-01T03:49:13.878Z,9.40
2019-03-01T03:51:41.276Z,9.30
2019-03-01T03:54:08.659Z,9.40
2019-03-01T03:56:36.078Z,9.50
2019-03-01T03:59:03.748Z,9.40
2019-03-01T04:01:31.057Z,9.30
2019-03-01T04:03:58.354Z,9.20
2019-03-01T04:06:26.406Z,9.10
2019-03-01T04:08:53.833Z,9.10
2019-03-01T04:11:21.235Z,9.20
2019-03-01T04:13:48.551Z,9.30
2019-03-01T04:16:15.944Z,9.50
2019-03-01T04:18:43.346Z,9.60
2019-03-01T04:21:10.816Z,9.70
2019-03-01T04:23:38.198Z,9.90
2019-03-01T04:26:05.578Z,10.10
2019-03-01T04:28:33.034Z,10.10
2019-03-01T04:31:02.704Z,9.90
2019-03-01T04:33:30.536Z,9.90
2019-03-01T04:35:57.937Z,9.60
2019-03-01T04:38:25.292Z,9.60
2019-03-01T04:40:52.710Z,9.50
2019-03-01T04:43:20.000Z,9.30
2019-03-01T04:45:47.703Z,9.30
2019-03-01T04:48:15.281Z,9.30
2019-03-01T04:50:42.911Z,9.50
2019-03-01T04:53:10.310Z,9.50
2019-03-01T04:55:37.710Z,9.70
2019-03-01T04:58:05.003Z,9.70
2019-03-01T05:00:32.420Z,9.70
2019-03-01T05:03:00.196Z,9.70
2019-03-01T05:05:27.577Z,9.70
2019-03-01T05:07:56.018Z,9.50
2019-03-01T05:10:23.412Z,9.50
2019-03-01T05:12:53.802Z,9.40
2019-03-01T05:15:22.391Z,9.20
2019-03-01T05:17:52.568Z,8.90
2019-03-01T05:20:20.013Z,8.90
2019-03-01T05:22:47.770Z,8.90
2019-03-01T05:25:15.400Z,8.90
2019-03-01T05:27:42.790Z,8.70
2019-03-01T05:30:11.301Z,8.60
2019-03-01T05:32:39.106Z,8.70
2019-03-01T05:35:06.823Z,8.80
2019-03-01T05:37:34.241Z,8.70
2019-03-01T05:40:04.383Z,8.50
2019-03-01T05:42:31.950Z,8.60
2019-03-01T05:45:00.568Z,8.80
2019-03-01T05:47:28.379Z,8.90
2019-03-01T05:49:55.683Z,8.90
2019-03-01T05:52:23.071Z,8.70
2019-03-01T05:54:50.458Z,8.90
2019-03-01T05:57:17.870Z,8.90
2019-03-01T05:59:45.286Z,8.80
2019-03-01T06:02:38.152Z,8.90
2019-03-01T06:05:15.028Z,8.90
2019-03-01T06:08:23.840Z,9.00
2019-03-01T06:11:01.635Z,8.90
2019-03-01T06:13:54.540Z,8.70
2019-03-01T06:16:45.625Z,8.50
2019-03-01T06:19:33.538Z,8.50
2019-03-01T06:22:38.434Z,8.50
2019-03-01T06:25:22.433Z,8.50
2019-03-01T06:28:05.969Z,8.70
2019-03-01T06:31:27.526Z,8.60
2019-03-01T06:34:23.357Z,8.60
2019-03-01T06:37:20.827Z,8.50
2019-03-01T06:40:52.241Z,8.50
2019-03-01T06:44:03.098Z,8.40
2019-03-01T06:47:36.479Z,8.60
2019-03-01T06:50:24.538Z,8.50
2019-03-01T06:52:51.872Z,8.60
2019-03-01T06:55:52.719Z,8.50
2019-03-01T06:58:24.883Z,8.40
2019-03-01T07:00:56.703Z,8.40
2019-03-01T07:03:24.339Z,8.50
2019-03-01T07:05:52.067Z,8.60
2019-03-01T07:08:19.460Z,8.60
2019-03-01T07:10:46.844Z,8.50
2019-03-01T07:13:14.252Z,8.60
2019-03-01T07:15:41.655Z,8.70
2019-03-01T07:18:09.058Z,8.70
2019-03-01T07:20:36.502Z,8.70
2019-03-01T07:23:03.901Z,8.70
2019-03-01T07:25:31.228Z,8.60
2019-03-01T07:27:58.910Z,8.80
2019-03-01T07:30:26.310Z,8.80
2019-03-01T07:32:53.686Z,8.70
2019-03-01T07:35:21.339Z,8.50
2019-03-01T07:37:48.732Z,8.40
2019-03-01T07:40:16.123Z,8.60
2019-03-01T07:42:43.845Z,8.70
2019-03-01T07:45:11.265Z,8.70
2019-03-01T07:47:38.692Z,8.60
2019-03-01T07:50:06.823Z,8.70
2019-03-01T07:52:34.217Z,8.80
2019-03-01T07:55:01.529Z,9.00
2019-03-01T07:57:31.469Z,9.20
2019-03-01T07:59:58.457Z,9.20
2019-03-01T08:02:25.877Z,9.20
2019-03-01T08:04:53.519Z,9.30
2019-03-01T08:07:23.619Z,9.10
2019-03-01T08:09:50.172Z,9.00
2019-03-01T08:12:17.630Z,9.10
2019-03-01T08:14:45.049Z,9.30
2019-03-01T08:17:12.487Z,9.20
2019-03-01T08:19:39.888Z,9.20
2019-03-01T08:22:07.197Z,9.20
2019-03-01T08:24:34.624Z,9.30
2019-03-01T08:27:01.946Z,9.30
2019-03-01T08:29:30.627Z,9.50
2019-03-01T08:31:58.795Z,9.50
2019-03-01T08:34:26.238Z,9.50
2019-03-01T08:36:53.547Z,9.20
2019-03-01T08:39:21.000Z,9.20
2019-03-01T08:41:48.395Z,9.30
2019-03-01T08:44:19.261Z,9.30
2019-03-01T08:46:46.505Z,9.30
2019-03-01T08:49:14.012Z,9.20
2019-03-01T08:51:41.334Z,9.40
2019-03-01T08:54:08.683Z,9.50
2019-03-01T08:56:36.077Z,9.70
2019-03-01T08:59:03.517Z,9.80
2019-03-01T09:01:31.791Z,9.90
2019-03-01T09:04:02.449Z,9.80
2019-03-01T09:06:29.841Z,9.90
2019-03-01T09:08:57.536Z,9.90
2019-03-01T09:11:25.026Z,9.90
2019-03-01T09:13:52.469Z,9.90
2019-03-01T09:16:19.909Z,10.00
2019-03-01T09:18:50.126Z,9.90
2019-03-01T09:21:17.268Z,9.70
2019-03-01T09:23:47.991Z,9.60
2019-03-01T09:26:16.717Z,9.70
2019-03-01T09:28:43.545Z,9.60
2019-03-01T09:31:10.999Z,9.80
2019-03-01T09:33:38.422Z,9.50
2019-03-01T09:36:14.474Z,9.70
2019-03-01T09:38:42.848Z,9.80
2019-03-01T09:41:11.258Z,9.80
2019-03-01T09:43:38.681Z,9.80
2019-03-01T09:46:06.001Z,10.00
2019-03-01T09:48:33.762Z,10.10
2019-03-01T09:51:01.237Z,10.10
2019-03-01T09:53:30.672Z,9.90
2019-03-01T09:56:00.007Z,9.90
2019-03-01T09:58:27.080Z,9.80
2019-03-01T10:01:04.309Z,9.60
2019-03-01T10:03:31.746Z,9.50
2019-03-01T10:05:59.052Z,9.50
2019-03-01T10:08:26.519Z,9.50
2019-03-01T10:10:53.985Z,9.60
2019-03-01T10:13:21.434Z,9.70
2019-03-01T10:15:48.855Z,9.80
2019-03-01T10:18:16.359Z,9.90
2019-03-01T10:20:43.910Z,10.10
2019-03-01T10:23:11.367Z,10.00
2019-03-01T10:25:38.790Z,10.10
2019-03-01T10:28:06.220Z,10.20
2019-03-01T10:30:33.851Z,10.00
2019-03-01T10:33:01.334Z,10.00
2019-03-01T10:35:28.778Z,10.00
2019-03-01T10:37:56.204Z,10.00
2019-03-01T10:40:23.648Z,9.90
2019-03-01T10:42:51.085Z,9.50
2019-03-01T10:45:20.937Z,9.50
2019-03-01T10:47:48.380Z,9.40
2019-03-01T10:50:15.757Z,9.20
2019-03-01T10:52:43.175Z,9.20
2019-03-01T10:55:12.478Z,9.30
2019-03-01T10:57:39.886Z,9.20
2019-03-01T11:00:20.949Z,9.00
2019-03-01T11:02:48.677Z,9.10
2019-03-01T11:05:16.097Z,9.10
2019-03-01T11:07:44.006Z,9.10
2019-03-01T11:10:14.073Z,9.00
2019-03-01T11:12:41.495Z,9.10
2019-03-01T11:15:09.959Z,9.20
2019-03-01T11:17:37.393Z,8.90
2019-03-01T11:20:04.943Z,8.90
2019-03-01T11:22:32.416Z,8.90
2019-03-01T11:24:59.866Z,9.10
2019-03-01T11:27:27.207Z,9.00
2019-03-01T11:29:54.701Z,9.00
2019-03-01T11:32:22.113Z,8.90
2019-03-01T11:34:49.548Z,9.10
2019-03-01T11:37:17.074Z,9.10
2019-03-01T11:39:44.480Z,9.10
2019-03-01T11:42:11.893Z,9.20
2019-03-01T11:44:39.352Z,9.30
2019-03-01T11:47:06.757Z,9.40
2019-03-01T11:49:34.206Z,9.40
2019-03-01T11:52:01.539Z,9.10
2019-03-01T11:54:29.001Z,9.10
2019-03-01T11:56:56.431Z,9.30
2019-03-01T11:59:23.880Z,9.60
2019-03-01T12:01:51.294Z,9.70
2019-03-01T12:04:18.773Z,9.80
2019-03-01T12:06:46.226Z,10.30
2019-03-01T12:09:13.998Z,10.30
2019-03-01T12:11:41.448Z,10.50
2019-03-01T12:14:08.911Z,10.60
2019-03-01T12:16:36.326Z,10.40
2019-03-01T12:19:04.066Z,10.40
2019-03-01T12:21:31.477Z,9.90
2019-03-01T12:23:58.870Z,10.10
2019-03-01T12:26:26.207Z,10.30
2019-03-01T12:28:53.615Z,10.60
2019-03-01T12:31:21.076Z,11.00
2019-03-01T12:33:48.519Z,10.90
2019-03-01T12:36:15.939Z,11.00
2019-03-01T12:38:43.492Z,11.00
2019-03-01T12:41:11.791Z,11.00
2019-03-01T12:43:39.202Z,11.20
2019-03-01T12:46:06.609Z,11.00
2019-03-01T12:48:34.059Z,10.80
2019-03-01T12:51:01.859Z,10.30
2019-03-01T12:53:29.385Z,10.20
2019-03-01T12:55:56.843Z,10.30
2019-03-01T12:58:24.290Z,10.60
2019-03-01T13:00:52.349Z,10.80
2019-03-01T13:03:19.777Z,10.80
2019-03-01T13:05:47.182Z,11.10
2019-03-01T13:08:15.784Z,11.40
2019-03-01T13:10:43.870Z,11.70
2019-03-01T13:13:11.334Z,11.50
2019-03-01T13:15:38.760Z,11.50
2019-03-01T13:18:06.226Z,11.30
2019-03-01T13:20:36.653Z,11.20
2019-03-01T13:23:04.997Z,11.40
2019-03-01T13:25:32.247Z,11.20
2019-03-01T13:27:59.730Z,11.30
2019-03-01T13:30:27.153Z,11.10
2019-03-01T13:32:55.174Z,11.10
2019-03-01T13:35:26.108Z,11.30
2019-03-01T13:37:54.890Z,11.30
2019-03-01T13:40:24.550Z,11.60
2019-03-01T13:42:51.756Z,11.70
2019-03-01T13:45:19.642Z,11.70
2019-03-01T13:47:47.096Z,12.00
2019-03-01T13:50:15.389Z,12.40
2019-03-01T13:52:42.937Z,12.90
2019-03-01T13:55:10.347Z,13.00
2019-03-01T13:57:37.804Z,13.60
2019-03-01T14:00:06.419Z,14.00
2019-03-01T14:02:33.883Z,14.30
2019-03-01T14:05:01.354Z,14.00
2019-03-01T14:07:29.118Z,13.70
2019-03-01T14:09:56.584Z,13.60
2019-03-01T14:12:24.350Z,13.50
2019-03-01T14:14:52.183Z,12.90
2019-03-01T14:17:21.119Z,12.80
2019-03-01T14:19:49.067Z,12.70
2019-03-01T14:22:16.541Z,12.50
2019-03-01T14:24:44.015Z,12.40
2019-03-01T14:27:11.513Z,12.40
2019-03-01T14:29:38.962Z,12.30
2019-03-01T14:32:06.364Z,12.20
2019-03-01T14:34:34.097Z,12.10
2019-03-01T14:37:01.587Z,11.90
2019-03-01T14:39:29.109Z,11.60
2019-03-01T14:41:56.545Z,11.40
2019-03-01T14:44:23.909Z,11.40
2019-03-01T14:46:52.889Z,11.40
2019-03-01T14:49:21.875Z,11.60
2019-03-01T14:51:50.405Z,11.70
2019-03-01T14:54:18.084Z,11.70
2019-03-01T14:56:52.447Z,11.60
2019-03-01T14:59:38.025Z,11.40
2019-03-01T15:02:39.800Z,11.70
2019-03-01T15:05:06.457Z,11.80
2019-03-01T15:07:36.300Z,11.70
2019-03-01T15:10:04.756Z,11.90
2019-03-01T15:12:32.383Z,12.20
2019-03-01T15:15:26.423Z,12.20
2019-03-01T15:17:57.013Z,12.20
2019-03-01T15:20:24.596Z,12.10
2019-03-01T15:22:52.083Z,12.10
2019-03-01T15:25:19.539Z,12.00
2019-03-01T15:27:47.420Z,12.20
2019-03-01T15:30:14.998Z,12.40
2019-03-01T15:32:42.479Z,12.30
2019-03-01T15:35:10.052Z,12.30
2019-03-01T15:37:37.555Z,12.10
2019-03-01T15:40:07.271Z,12.10
2019-03-01T15:42:34.538Z,11.90
2019-03-01T15:45:05.049Z,11.80
2019-03-01T15:47:31.214Z,11.90
2019-03-01T15:49:58.725Z,11.80
2019-03-01T15:52:26.189Z,11.90
2019-03-01T15:54:53.636Z,11.90
2019-03-01T15:57:30.406Z,11.70
2019-03-01T15:59:57.840Z,11.70
2019-03-01T16:02:25.644Z,11.80
2019-03-01T16:04:53.128Z,11.80
2019-03-01T16:07:20.839Z,11.50
2019-03-01T16:09:48.327Z,11.60
2019-03-01T16:12:15.728Z,11.80
2019-03-01T16:14:44.123Z,11.90
2019-03-01T16:17:11.904Z,11.80
2019-03-01T16:19:39.395Z,11.80
2019-03-01T16:22:07.190Z,11.70
2019-03-01T16:24:34.638Z,11.60
2019-03-01T16:27:02.010Z,11.60
2019-03-01T16:29:29.432Z,11.30
2019-03-01T16:31:56.887Z,11.00
2019-03-01T16:34:24.227Z,11.10
2019-03-01T16:36:54.080Z,11.20
2019-03-01T16:39:23.820Z,11.10
2019-03-01T16:41:51.908Z,11.00
2019-03-01T16:44:19.565Z,11.00
2019-03-01T16:46:47.108Z,11.00
2019-03-01T16:49:14.533Z,11.00
2019-03-01T16:51:42.198Z,11.20
2019-03-01T16:54:15.287Z,11.20
2019-03-01T16:56:39.443Z,11.20
2019-03-01T16:59:07.288Z,11.20
2019-03-01T17:01:34.912Z,10.80
2019-03-01T17:04:02.442Z,11.00
2019-03-01T17:06:29.887Z,11.00
2019-03-01T17:08:57.347Z,11.00
2019-03-01T17:11:24.819Z,10.90
2019-03-01T17:13:52.584Z,10.80
2019-03-01T17:16:20.497Z,10.90
2019-03-01T17:18:49.448Z,10.80
2019-03-01T17:21:17.183Z,10.80
2019-03-01T17:23:44.688Z,10.70
2019-03-01T17:26:12.122Z,10.60
2019-03-01T17:28:39.659Z,10.50
2019-03-01T17:31:07.126Z,10.50
2019-03-01T17:33:34.531Z,10.60
2019-03-01T17:36:01.989Z,10.50
2019-03-01T17:38:29.437Z,10.50
2019-03-01T17:40:56.855Z,10.60
2019-03-01T17:43:25.934Z,10.40
2019-03-01T17:45:54.389Z,10.20
2019-03-01T17:48:23.198Z,10.20
2019-03-01T17:50:50.554Z,10.20
2019-03-01T17:53:18.067Z,10.20
2019-03-01T17:55:45.595Z,10.20
2019-03-01T17:58:15.189Z,9.90
2019-03-01T18:00:42.996Z,9.80
2019-03-01T18:03:10.434Z,9.90
2019-03-01T18:05:40.614Z,9.80
2019-03-01T18:08:07.465Z,9.60
2019-03-01T18:10:34.915Z,9.60
2019-03-01T18:13:02.400Z,9.70
2019-03-01T18:15:29.867Z,9.70
2019-03-01T18:17:57.336Z,9.80
2019-03-01T18:20:26.619Z,9.90
2019-03-01T18:22:54.520Z,10.00
2019-03-01T18:25:26.122Z,10.00
2019-03-01T18:27:53.029Z,10.10
2019-03-01T18:30:21.453Z,10.10
2019-03-01T18:32:49.048Z,10.00
2019-03-01T18:35:16.517Z,10.10
2019-03-01T18:37:44.028Z,10.10
2019-03-01T18:40:13.454Z,10.00
2019-03-01T18:42:40.967Z,10.10
2019-03-01T18:45:11.738Z,10.10
2019-03-01T18:47:39.225Z,10.00
2019-03-01T18:50:14.219Z,9.80
2019-03-01T18:52:41.745Z,9.90
2019-03-01T18:55:09.393Z,10.00
2019-03-01T18:57:38.620Z,10.00
2019-03-01T19:00:17.648Z,9.80
2019-03-01T19:02:45.896Z,9.70
2019-03-01T19:05:13.456Z,9.40
2019-03-01T19:07:41.094Z,9.20
2019-03-01T19:10:09.259Z,9.30
2019-03-01T19:12:36.762Z,9.40
2019-03-01T19:15:04.854Z,9.40
2019-03-01T19:17:32.420Z,9.20
2019-03-01T19:20:01.983Z,9.50
2019-03-01T19:22:29.692Z,9.50
2019-03-01T19:24:57.411Z,9.70
2019-03-01T19:27:25.067Z,9.80
2019-03-01T19:29:52.794Z,9.90
2019-03-01T19:32:23.579Z,9.70
2019-03-01T19:34:52.781Z,9.70
2019-03-01T19:37:20.155Z,9.70
2019-03-01T19:39:47.695Z,9.60
2019-03-01T19:42:15.258Z,9.60
2019-03-01T19:44:43.064Z,9.70
2019-03-01T19:47:10.757Z,9.60
2019-03-01T19:49:40.257Z,9.50
2019-03-01T19:52:09.347Z,9.30
2019-03-01T19:54:37.565Z,9.00
2019-03-01T19:57:05.174Z,9.00
2019-03-01T19:59:33.119Z,9.20
2019-03-01T20:02:00.733Z,9.10
2019-03-01T20:04:28.337Z,9.30
2019-03-01T20:06:56.561Z,9.50
2019-03-01T20:09:25.177Z,9.60
2019-03-01T20:11:55.464Z,9.50
2019-03-01T20:14:23.331Z,9.40
2019-03-01T20:16:50.995Z,9.20
2019-03-01T20:19:20.884Z,9.10
2019-03-01T20:21:48.129Z,9.10
2019-03-01T20:24:15.710Z,9.20
2019-03-01T20:26:43.293Z,9.10
2019-03-01T20:29:11.485Z,9.20
2019-03-01T20:31:40.489Z,9.00
2019-03-01T20:34:08.448Z,9.00
2019-03-01T20:36:36.827Z,9.10
2019-03-01T20:39:04.772Z,9.20
2019-03-01T20:41:32.302Z,9.40
2019-03-01T20:44:01.110Z,9.50
2019-03-01T20:46:28.711Z,9.60
2019-03-01T20:49:00.643Z,9.60
2019-03-01T20:51:28.021Z,9.80
2019-03-01T20:53:56.305Z,9.70
2019-03-01T20:56:24.079Z,9.80
2019-03-01T20:58:51.757Z,9.80
2019-03-01T21:01:19.378Z,9.90
2019-03-01T21:03:47.233Z,9.90
2019-03-01T21:06:15.450Z,9.90
2019-03-01T21:08:43.159Z,10.00
2019-03-01T21:11:10.702Z,9.90
2019-03-01T21:13:38.253Z,10.00
2019-03-01T21:16:06.166Z,9.80
2019-03-01T21:18:34.182Z,9.80
2019-03-01T21:21:02.885Z,9.90
2019-03-01T21:23:30.401Z,9.90
2019-03-01T21:25:58.039Z,9.80
2019-03-01T21:28:25.906Z,9.80
2019-03-01T21:30:55.657Z,9.80
2019-03-01T21:33:24.061Z,9.40
2019-03-01T21:35:53.161Z,9.30
2019-03-01T21:38:20.816Z,9.40
2019-03-01T21:40:48.279Z,9.30
2019-03-01T21:43:15.945Z,9.40
2019-03-01T21:45:43.851Z,9.40
2019-03-01T21:48:11.453Z,9.20
2019-03-01T21:50:42.429Z,9.20
2019-03-01T21:53:08.653Z,8.70
2019-03-01T21:55:36.114Z,8.80
2019-03-01T21:58:06.472Z,9.00
2019-03-01T22:00:34.740Z,9.20
2019-03-01T22:03:02.251Z,9.30
2019-03-01T22:05:29.700Z,9.30
2019-03-01T22:07:57.155Z,9.40
2019-03-01T22:10:24.676Z,9.30
2019-03-01T22:12:52.121Z,9.40
2019-03-01T22:15:21.559Z,9.60
2019-03-01T22:17:50.314Z,9.60
2019-03-01T22:20:18.509Z,9.70
2019-03-01T22:22:45.988Z,9.60
2019-03-01T22:25:13.597Z,9.70
2019-03-01T22:27:42.198Z,9.80
2019-03-01T22:30:12.250Z,9.70
2019-03-01T22:32:42.317Z,9.90
2019-03-01T22:35:09.605Z,9.90
2019-03-01T22:37:37.103Z,9.70
2019-03-01T22:40:05.798Z,9.70
2019-03-01T22:42:33.206Z,9.70
2019-03-01T22:45:00.628Z,9.50
2019-03-01T22:47:28.129Z,9.50
2019-03-01T22:49:55.970Z,9.60
2019-03-01T22:52:26.706Z,9.70
2019-03-01T22:54:52.712Z,9.80
2019-03-01T23:02:44.378Z,9.80
2019-03-01T23:12:30.699Z,9.40
2019-03-01T23:22:12.640Z,9.20
2019-03-01T23:29:08.912Z,9.10
